A- A+ FrançaisEnglishEspañol中国

Services sur Internet Soldes sur Internet Des idées de cadeaux Météo Météo aéro

La météo à : Autours de vous Tarbes-Lourdes-PyrénéesGraulhet-Montdragon Cognac-Chateau-Bernard Brest-Guipavas

manche à air

La météo aéronautique pour les pilotes, la préparation du vol avec les METAR (METeorological Aerodrome Report, message d'observation des conditions météorologiques pour l'aviation) et Les TAF (Terminal Aerodrome Forecast : message de prévision à court terme des conditions météorologiques pour l'aviation). Et les autres ressources comme les VAC (Visual Approch Chart) et les NOTAM (Notice To Airman) pour préprer les vols.

Aéroport Hassi-Messaoud Oued (Algérie) / OACI DAUH/ IATA HME

L'altitude de l'aéroport Hassi-Messaoud Oued est de 141 m = 463 ft. Il est situé à proximité de Hassi Messaoud (Algérie). La météo générale à 5 jours est disponible pour Rouissat situé à 79.7 km.

METAR de l'aéroport Hassi-Messaoud Oued - DAUH

DAUH 282030Z 36003KT CAVOK 15/04 Q1019

Décodage du METAR de l'aéroport Hassi-Messaoud Oued (DZ)

METAR émis par DAUH le jeudi 28 novembre 2019 à 20:30 heure TU. Attention ce METAR est obsolète car il a été émis il y a 10 heure et 50 minutes.

La visibilité est de supérieure à 10 km = supérieure à 6.2 sm.

La température est de 15°C = 59 °F et le point rosée est de 4°C = 39 °F . Ce qui correspond à 48% d'humidité relative.

Le QNH est de 1019 hPa = 30.09 inHg

Vent de 3 kt = 6 km/h, orienté à 360°.

Pas de nuages.

TAF de l'aéroport Hassi-Messaoud Oued - DAUH

DAUH 281700Z 2818/2918 20006KT CAVOK

DAUH 281700Z 2818/2918 20006KT visibilité supérieure à 10km, aucun nuage à une hauteur inférieure à 5000 ft ou sous l'altitude minimale de secteur et aucun cumulonimbus ou cumulus bourgeonnant, quelle que soit leur altitude

Aéroport à proximité de Hassi-Messaoud Oued

Météo générale à 5 jours à Rouissat (79.7 km)Aéroport Ouargla (74 km)Aéroport Touggourt Sidi Mahda (155 km)Aéroport El Qued Guemar (213 km)Aéroport Ghardaia Noumerate (235 km)Aéroport El Borma (295 km)Aéroport Tilrempt Hassi R'mel (300 km)

VAC de l'aéroport Hassi-Messaoud Oued - DAUH

La carte d'approche à vue (VAC Visual Approah Chart) est fournie sans aucune garantie de son actualité. Le pilote est le seul responsable de la vérification de sa validité avant de l'utiliser opérationnellement pour préparer un vol ou l'utiliser lors de sa navigation.

VAC de DAUH

Vue aérienne de l'aéroport Hassi-Messaoud Oued

NOTAM de l'aéroport Hassi-Messaoud Oued

Les NOTAM sont fournis sans aucune garantie de leur actualité. Le pilote est le seul responsable de la vérification de sa validité avant de l'utiliser opérationnellement pour préparer un vol ou l'utiliser lors de sa navigation.

Pas de NOTAM

Sources des données